Time;durP1;ratioP1;P1;durP2;ratioP2;P2;SDS_P1;SDS_P2;PMS_P1;PMS_P2;Temp;Humidity;BMP_temperature;BMP_pressure;BME280_temperature;BME280_humidity;BME280_pressure;Samples;Min_cycle;Max_cycle;Signal;HPM_P1;HPM_P2
2022/01/09 00:00:04;;;;;;;404.02;120.07;;;;;;;6.52;100.00;99004.19;342462;28;1789;-73
2022/01/09 00:00:16;;;;;;;405.63;121.50;;;;;;;6.48;100.00;98994.84;339753;29;1333;-74
2022/01/09 00:00:34;;;;;;;410.48;122.50;;;;;;;6.51;100.00;99005.09;342412;28;1558;-73
2022/01/09 00:00:44;;;;;;;409.83;121.38;;;;;;;6.51;100.00;98997.31;343848;28;1410;-75
2022/01/09 00:00:55;;;;;;;410.98;121.95;;;;;;;6.51;100.00;98998.16;339390;28;1233;-74
2022/01/09 00:01:05;;;;;;;409.90;122.30;;;;;;;6.52;100.00;99005.03;341292;29;861;-75
2022/01/09 00:01:16;;;;;;;408.38;121.97;;;;;;;6.53;100.00;99000.69;343781;28;810;-75
2022/01/09 00:01:27;;;;;;;404.92;120.80;;;;;;;6.53;100.00;99005.91;342407;28;936;-75
2022/01/09 00:01:37;;;;;;;405.57;122.57;;;;;;;6.51;100.00;99000.75;341010;29;1204;-75
2022/01/09 00:01:47;;;;;;;406.27;121.07;;;;;;;6.53;100.00;99000.69;340891;28;1372;-75
2022/01/09 00:01:58;;;;;;;405.73;122.17;;;;;;;6.53;100.00;98998.09;338431;29;842;-74
2022/01/09 00:02:08;;;;;;;408.13;121.70;;;;;;;6.53;100.00;99000.69;341154;29;948;-74
2022/01/09 00:02:18;;;;;;;409.20;122.67;;;;;;;6.52;100.00;98997.25;342290;28;1288;-74
2022/01/09 00:02:29;;;;;;;409.25;122.70;;;;;;;6.52;100.00;99005.03;343812;28;1377;-74
2022/01/09 00:02:40;;;;;;;404.57;121.07;;;;;;;6.52;100.00;98997.25;344241;28;1176;-74
2022/01/09 00:02:51;;;;;;;406.65;123.43;;;;;;;6.53;100.00;98998.09;342478;28;1468;-74
2022/01/09 00:03:01;;;;;;;405.58;122.80;;;;;;;6.52;100.00;98999.00;339672;28;1411;-74
2022/01/09 00:03:12;;;;;;;407.47;123.10;;;;;;;6.52;100.00;98997.25;339870;29;1308;-74
2022/01/09 00:03:22;;;;;;;405.15;120.65;;;;;;;6.53;100.00;99005.91;342392;28;1220;-74
2022/01/09 00:03:32;;;;;;;407.63;120.53;;;;;;;6.53;100.00;99003.28;344977;28;1234;-74
2022/01/09 00:03:43;;;;;;;407.10;119.07;;;;;;;6.52;100.00;99001.59;343667;28;1168;-75
2022/01/09 00:03:53;;;;;;;404.92;120.10;;;;;;;6.52;100.00;98999.00;343866;28;794;-75
2022/01/09 00:04:04;;;;;;;403.23;120.83;;;;;;;6.53;100.00;99008.50;339784;28;1245;-75
2022/01/09 00:04:14;;;;;;;403.97;123.27;;;;;;;6.52;100.00;99001.59;341121;29;1077;-75
2022/01/09 00:04:24;;;;;;;404.20;120.90;;;;;;;6.52;100.00;98999.00;342966;28;1664;-75
2022/01/09 00:04:35;;;;;;;404.53;121.33;;;;;;;6.53;100.00;99000.69;343824;28;881;-75
2022/01/09 00:04:45;;;;;;;401.42;119.82;;;;;;;6.52;100.00;99010.25;341198;29;810;-75
2022/01/09 00:04:56;;;;;;;401.33;120.50;;;;;;;6.54;100.00;99002.41;342306;28;893;-75
2022/01/09 00:05:07;;;;;;;402.13;122.45;;;;;;;6.55;100.00;99006.69;342286;28;1910;-75
2022/01/09 00:05:17;;;;;;;402.88;123.13;;;;;;;6.54;100.00;99003.25;341572;28;871;-74
2022/01/09 00:05:28;;;;;;;403.33;122.73;;;;;;;6.54;100.00;99003.25;342331;28;1202;-74
2022/01/09 00:05:38;;;;;;;402.58;120.43;;;;;;;6.54;100.00;98997.19;339619;29;1357;-74
2022/01/09 00:05:48;;;;;;;402.43;121.37;;;;;;;6.56;100.00;99003.19;341157;29;924;-74
2022/01/09 00:05:59;;;;;;;401.73;121.85;;;;;;;6.53;100.00;98995.50;339662;29;890;-74
2022/01/09 00:06:09;;;;;;;404.73;122.57;;;;;;;6.56;100.00;99001.44;341095;29;829;-74
2022/01/09 00:06:20;;;;;;;404.40;123.65;;;;;;;6.56;100.00;99003.19;341237;28;1418;-74
2022/01/09 00:06:31;;;;;;;403.30;122.17;;;;;;;6.53;100.00;98998.09;342298;28;1285;-74
2022/01/09 00:06:42;;;;;;;400.30;122.57;;;;;;;6.53;100.00;98998.09;343646;28;1284;-74
2022/01/09 00:06:52;;;;;;;399.15;120.90;;;;;;;6.51;100.00;98995.56;341198;28;1195;-74
2022/01/09 00:07:03;;;;;;;401.13;124.37;;;;;;;6.51;100.00;99002.50;339881;29;870;-74
2022/01/09 00:07:13;;;;;;;400.80;120.78;;;;;;;6.49;100.00;99002.59;341161;28;1507;-73
2022/01/09 00:07:23;;;;;;;400.77;121.70;;;;;;;6.48;100.00;98995.69;342445;28;1233;-74
2022/01/09 00:07:34;;;;;;;401.02;121.57;;;;;;;6.49;100.00;98999.13;342473;28;1296;-73
2022/01/09 00:07:44;;;;;;;403.07;124.07;;;;;;;6.49;100.00;99004.34;341155;29;878;-74
2022/01/09 00:07:55;;;;;;;405.80;123.15;;;;;;;6.49;100.00;98994.78;341529;28;1305;-74
2022/01/09 00:08:05;;;;;;;406.43;122.80;;;;;;;6.48;100.00;98989.63;342842;28;1015;-74
2022/01/09 00:08:16;;;;;;;404.30;122.40;;;;;;;6.47;100.00;98993.13;342465;28;826;-73
2022/01/09 00:08:26;;;;;;;406.93;126.83;;;;;;;6.50;100.00;99000.84;343815;28;1180;-74
2022/01/09 00:08:38;;;;;;;407.33;127.32;;;;;;;6.51;100.00;99002.50;342359;28;1485;-73
2022/01/09 00:08:48;;;;;;;407.67;127.00;;;;;;;6.50;100.00;99000.84;342449;28;1416;-73
2022/01/09 00:08:59;;;;;;;402.70;121.57;;;;;;;6.50;100.00;98995.63;342426;28;881;-73
2022/01/09 00:09:09;;;;;;;401.30;119.77;;;;;;;6.52;100.00;98999.00;342326;28;889;-73
2022/01/09 00:09:19;;;;;;;400.65;120.60;;;;;;;6.51;100.00;98994.69;342645;28;838;-73
2022/01/09 00:09:31;;;;;;;403.57;121.63;;;;;;;6.52;100.00;98996.41;343788;28;1192;-73
2022/01/09 00:09:44;;;;;;;405.50;124.63;;;;;;;6.50;100.00;98995.63;343783;28;1338;-74
2022/01/09 00:09:56;;;;;;;405.40;125.05;;;;;;;6.53;100.00;98998.09;343788;28;1431;-74
2022/01/09 00:10:07;;;;;;;407.55;124.93;;;;;;;6.52;100.00;98999.84;342377;28;1797;-73
2022/01/09 00:10:18;;;;;;;405.13;124.90;;;;;;;6.52;100.00;98999.00;342439;28;985;-73
2022/01/09 00:10:30;;;;;;;402.95;123.50;;;;;;;6.49;100.00;98994.78;339746;28;1315;-73
2022/01/09 00:10:46;;;;;;;404.30;123.05;;;;;;;6.50;100.00;98995.63;342924;28;877;-73
2022/01/09 00:10:57;;;;;;;408.30;122.43;;;;;;;6.49;100.00;98993.94;338495;29;948;-74
2022/01/09 00:11:07;;;;;;;406.93;121.20;;;;;;;6.51;100.00;98992.09;341185;29;1024;-73
2022/01/09 00:11:25;;;;;;;404.58;120.28;;;;;;;6.51;100.00;98992.94;338648;29;810;-74
2022/01/09 00:11:35;;;;;;;403.42;119.00;;;;;;;6.50;100.00;98990.44;339853;29;1514;-74
2022/01/09 00:11:46;;;;;;;404.87;119.43;;;;;;;6.52;100.00;98996.41;340183;29;1265;-74
2022/01/09 00:11:56;;;;;;;406.63;123.40;;;;;;;6.52;100.00;98993.78;342539;28;1197;-73
2022/01/09 00:12:07;;;;;;;410.23;124.17;;;;;;;6.51;100.00;98992.94;339859;28;1344;-74
2022/01/09 00:12:17;;;;;;;408.70;125.40;;;;;;;6.51;100.00;98990.34;339954;28;798;-74
2022/01/09 00:12:28;;;;;;;406.13;123.70;;;;;;;6.51;100.00;98992.09;342481;28;1032;-74
2022/01/09 00:12:38;;;;;;;406.17;123.95;;;;;;;6.52;100.00;98988.59;342522;28;1497;-73
2022/01/09 00:12:49;;;;;;;407.00;122.80;;;;;;;6.50;100.00;98993.03;338571;29;871;-74
2022/01/09 00:12:59;;;;;;;407.40;123.03;;;;;;;6.52;100.00;98994.66;343791;28;1020;-74
2022/01/09 00:13:09;;;;;;;408.53;122.67;;;;;;;6.51;100.00;98994.69;342483;28;1192;-74
2022/01/09 00:13:20;;;;;;;407.65;121.95;;;;;;;6.52;100.00;98983.41;341235;29;1024;-74
2022/01/09 00:13:30;;;;;;;409.10;122.23;;;;;;;6.51;100.00;98990.34;338449;29;1259;-75
2022/01/09 00:13:41;;;;;;;409.10;122.70;;;;;;;6.54;100.00;98994.59;343792;28;1422;-74
2022/01/09 00:13:55;;;;;;;409.48;123.43;;;;;;;6.52;100.00;98994.66;343758;28;1301;-74
2022/01/09 00:14:05;;;;;;;411.50;123.70;;;;;;;6.53;100.00;98990.28;341012;28;1320;-74
2022/01/09 00:14:15;;;;;;;416.20;128.47;;;;;;;6.52;100.00;98996.41;342663;28;1343;-74
2022/01/09 00:14:26;;;;;;;415.40;128.80;;;;;;;6.52;100.00;98993.78;345149;28;1193;-74
2022/01/09 00:14:36;;;;;;;413.33;125.88;;;;;;;6.52;100.00;98986.00;339821;28;1320;-74
2022/01/09 00:14:47;;;;;;;412.13;125.03;;;;;;;6.52;100.00;98983.41;342371;28;1363;-74
2022/01/09 00:14:57;;;;;;;411.33;123.60;;;;;;;6.52;100.00;98986.84;342383;28;1004;-74
2022/01/09 00:15:08;;;;;;;412.83;124.43;;;;;;;6.52;100.00;98999.00;342395;28;1399;-74
2022/01/09 00:15:18;;;;;;;412.92;125.00;;;;;;;6.51;100.00;98985.16;341241;29;849;-74
2022/01/09 00:15:29;;;;;;;413.83;126.93;;;;;;;6.51;100.00;98987.75;341134;28;1246;-74
2022/01/09 00:15:39;;;;;;;414.70;127.53;;;;;;;6.52;100.00;98988.59;342520;28;786;-75
2022/01/09 00:15:50;;;;;;;415.73;128.15;;;;;;;6.51;100.00;98986.91;342385;28;1224;-73
2022/01/09 00:16:00;;;;;;;415.50;128.60;;;;;;;6.52;100.00;98989.44;342338;28;1289;-73
2022/01/09 00:16:10;;;;;;;413.92;128.77;;;;;;;6.53;100.00;98985.09;343129;28;1309;-74
2022/01/09 00:16:21;;;;;;;410.40;126.97;;;;;;;6.52;100.00;98988.59;341142;29;1296;-74
2022/01/09 00:16:31;;;;;;;411.50;126.55;;;;;;;6.53;100.00;98990.28;342602;28;834;-74
2022/01/09 00:16:42;;;;;;;414.33;128.20;;;;;;;6.51;100.00;98986.91;342458;28;1310;-74
2022/01/09 00:16:52;;;;;;;414.65;128.93;;;;;;;6.51;100.00;98985.16;342147;28;1397;-74
2022/01/09 00:17:03;;;;;;;415.70;127.73;;;;;;;6.51;100.00;98987.75;339836;28;1303;-73
2022/01/09 00:17:13;;;;;;;411.85;123.90;;;;;;;6.51;100.00;98990.34;342661;28;810;-73
2022/01/09 00:17:23;;;;;;;415.10;127.67;;;;;;;6.50;100.00;98985.25;345184;28;817;-74
2022/01/09 00:17:34;;;;;;;413.30;127.63;;;;;;;6.52;100.00;98986.00;341095;28;1601;-74
2022/01/09 00:17:44;;;;;;;415.67;126.93;;;;;;;6.51;100.00;98992.09;341185;29;1328;-74
2022/01/09 00:17:55;;;;;;;413.38;123.82;;;;;;;6.51;100.00;98987.75;341235;29;869;-73
2022/01/09 00:18:05;;;;;;;413.03;123.33;;;;;;;6.51;100.00;98992.09;341258;29;874;-73
2022/01/09 00:18:15;;;;;;;414.08;125.72;;;;;;;6.50;100.00;98991.25;342398;28;1387;-74
2022/01/09 00:18:26;;;;;;;411.07;124.33;;;;;;;6.50;100.00;98998.22;342417;28;1296;-74
2022/01/09 00:18:36;;;;;;;409.67;124.75;;;;;;;6.51;100.00;98994.69;339724;28;1330;-73
2022/01/09 00:18:47;;;;;;;412.60;125.30;;;;;;;6.48;100.00;98990.50;340115;28;1110;-73
2022/01/09 00:18:58;;;;;;;414.42;123.80;;;;;;;6.51;100.00;98997.31;338745;29;1115;-74
2022/01/09 00:19:08;;;;;;;413.52;123.97;;;;;;;6.51;100.00;98994.69;341098;29;1329;-74
2022/01/09 00:19:19;;;;;;;413.30;123.63;;;;;;;6.51;100.00;98997.31;339748;28;1324;-74
2022/01/09 00:19:29;;;;;;;415.75;125.28;;;;;;;6.50;100.00;98995.63;339894;29;925;-73
2022/01/09 00:19:40;;;;;;;420.53;126.47;;;;;;;6.52;100.00;98999.00;339815;29;1199;-73
2022/01/09 00:19:50;;;;;;;421.90;128.98;;;;;;;6.51;100.00;98992.09;339899;29;948;-74
2022/01/09 00:20:00;;;;;;;419.30;128.93;;;;;;;6.51;100.00;98992.09;341154;28;1094;-74
2022/01/09 00:20:11;;;;;;;416.27;125.72;;;;;;;6.50;100.00;98993.03;343245;28;1337;-74
2022/01/09 00:20:22;;;;;;;414.70;123.53;;;;;;;6.50;100.00;98990.44;342432;28;1220;-73
2022/01/09 00:20:32;;;;;;;413.93;123.10;;;;;;;6.51;100.00;98994.69;342426;28;1344;-73
2022/01/09 00:20:43;;;;;;;416.95;124.25;;;;;;;6.51;100.00;98986.91;343934;28;857;-73
2022/01/09 00:20:54;;;;;;;415.70;124.00;;;;;;;6.51;100.00;98981.69;340949;29;1186;-73
2022/01/09 00:21:06;;;;;;;416.27;125.93;;;;;;;6.53;100.00;98995.50;342501;28;1396;-74
2022/01/09 00:21:16;;;;;;;415.52;127.68;;;;;;;6.51;100.00;98985.16;343952;28;865;-74
2022/01/09 00:21:27;;;;;;;416.17;129.43;;;;;;;6.51;100.00;98984.31;344212;28;1170;-74
2022/01/09 00:21:37;;;;;;;415.52;128.43;;;;;;;6.52;100.00;98983.41;343065;28;822;-74
2022/01/09 00:21:48;;;;;;;419.77;128.57;;;;;;;6.51;100.00;98982.56;339789;29;1143;-74
2022/01/09 00:21:58;;;;;;;421.60;127.80;;;;;;;6.51;100.00;98987.75;341227;29;972;-74
2022/01/09 00:22:08;;;;;;;420.63;127.37;;;;;;;6.52;100.00;98983.41;343938;28;825;-74
2022/01/09 00:22:26;;;;;;;417.55;127.15;;;;;;;6.52;100.00;98988.59;341146;29;1185;-74
2022/01/09 00:22:44;;;;;;;416.63;126.60;;;;;;;6.52;100.00;98988.59;341056;28;1398;-74
2022/01/09 00:22:55;;;;;;;420.42;127.68;;;;;;;6.50;100.00;98986.06;342410;28;1309;-73
2022/01/09 00:23:05;;;;;;;421.00;127.30;;;;;;;6.53;100.00;98990.28;341146;29;882;-73
2022/01/09 00:23:16;;;;;;;420.30;127.78;;;;;;;6.52;100.00;98988.59;339784;29;1336;-74
2022/01/09 00:23:26;;;;;;;420.20;129.77;;;;;;;6.51;100.00;98981.69;344885;28;1466;-74
2022/01/09 00:23:37;;;;;;;418.67;128.20;;;;;;;6.53;100.00;98985.09;343660;28;1254;-74
2022/01/09 00:23:47;;;;;;;417.93;126.40;;;;;;;6.52;100.00;98984.25;341096;28;1336;-75
2022/01/09 00:23:57;;;;;;;421.90;127.38;;;;;;;6.53;100.00;98987.69;340125;29;826;-74
2022/01/09 00:24:08;;;;;;;422.00;127.40;;;;;;;6.52;100.00;98983.41;341212;29;900;-74
2022/01/09 00:24:18;;;;;;;420.10;127.63;;;;;;;6.53;100.00;98987.69;343050;28;1312;-74
2022/01/09 00:24:28;;;;;;;414.10;125.87;;;;;;;6.50;100.00;98982.63;342455;28;853;-74
2022/01/09 00:24:39;;;;;;;414.70;128.00;;;;;;;6.51;100.00;98981.69;342586;28;931;-74
2022/01/09 00:24:49;;;;;;;417.87;130.37;;;;;;;6.52;100.00;98983.41;339877;28;1254;-74
2022/01/09 00:25:00;;;;;;;418.90;130.03;;;;;;;6.52;100.00;98983.41;341187;29;807;-74
2022/01/09 00:25:10;;;;;;;416.98;128.27;;;;;;;6.51;100.00;98981.69;340994;29;1922;-74
2022/01/09 00:25:22;;;;;;;417.58;126.60;;;;;;;6.50;100.00;98980.03;343865;28;996;-74
2022/01/09 00:25:32;;;;;;;414.42;127.45;;;;;;;6.51;100.00;98992.09;345073;28;1286;-74
2022/01/09 00:25:43;;;;;;;413.38;127.05;;;;;;;6.51;100.00;98982.56;343797;28;821;-74
2022/01/09 00:25:53;;;;;;;411.47;125.73;;;;;;;6.53;100.00;98985.09;343931;28;782;-74
2022/01/09 00:26:06;;;;;;;414.23;127.25;;;;;;;6.53;100.00;98991.16;343200;28;1208;-74
2022/01/09 00:26:16;;;;;;;415.75;130.00;;;;;;;6.51;100.00;98979.94;342388;28;1423;-74
2022/01/09 00:26:27;;;;;;;418.67;131.93;;;;;;;6.52;100.00;98984.25;342679;28;814;-74
2022/01/09 00:26:37;;;;;;;419.48;132.13;;;;;;;6.53;100.00;98990.28;341100;28;1271;-74
2022/01/09 00:26:47;;;;;;;420.97;131.03;;;;;;;6.52;100.00;98978.19;342094;28;1376;-74
2022/01/09 00:26:58;;;;;;;420.87;130.17;;;;;;;6.52;100.00;98981.66;342792;28;1297;-74
2022/01/09 00:27:08;;;;;;;421.17;131.73;;;;;;;6.52;100.00;98978.19;342470;28;1314;-74
2022/01/09 00:27:19;;;;;;;419.70;131.97;;;;;;;6.53;100.00;98987.69;341099;28;1201;-74
2022/01/09 00:27:29;;;;;;;421.77;133.63;;;;;;;6.53;100.00;98982.50;342577;28;805;-74
2022/01/09 00:27:40;;;;;;;423.00;133.03;;;;;;;6.51;100.00;98989.50;342444;28;1307;-74
2022/01/09 00:27:50;;;;;;;421.80;131.23;;;;;;;6.52;100.00;98989.44;342460;28;1233;-74
2022/01/09 00:28:01;;;;;;;418.92;128.25;;;;;;;6.53;100.00;98988.53;342489;28;1224;-74
2022/01/09 00:28:11;;;;;;;417.87;129.10;;;;;;;6.54;100.00;98986.78;342475;28;1184;-74
2022/01/09 00:28:21;;;;;;;420.48;130.43;;;;;;;6.54;100.00;98986.78;342398;28;1344;-74
2022/01/09 00:28:32;;;;;;;424.60;131.87;;;;;;;6.55;100.00;98983.28;340717;28;1308;-74
2022/01/09 00:28:42;;;;;;;425.13;132.52;;;;;;;6.54;100.00;98986.78;343859;28;1094;-74
2022/01/09 00:28:53;;;;;;;424.17;133.00;;;;;;;6.54;100.00;98984.19;342384;28;845;-74
2022/01/09 00:29:06;;;;;;;422.98;132.80;;;;;;;6.55;100.00;98993.69;342635;28;1061;-74
2022/01/09 00:29:17;;;;;;;422.55;130.77;;;;;;;6.54;100.00;98981.59;342407;28;1318;-74
2022/01/09 00:29:27;;;;;;;419.17;129.80;;;;;;;6.53;100.00;98985.09;339845;29;1358;-74
2022/01/09 00:29:37;;;;;;;421.53;130.23;;;;;;;6.54;100.00;98984.19;341038;29;1300;-74
2022/01/09 00:29:48;;;;;;;422.73;131.10;;;;;;;6.54;100.00;98982.44;340305;29;1055;-74
2022/01/09 00:29:58;;;;;;;427.17;130.98;;;;;;;6.56;100.00;98985.00;341127;28;1494;-74
2022/01/09 00:30:10;;;;;;;425.33;131.53;;;;;;;6.54;100.00;98989.41;339031;29;1231;-74
2022/01/09 00:30:22;;;;;;;422.42;127.30;;;;;;;6.52;100.00;98983.41;342403;28;1426;-74
2022/01/09 00:30:33;;;;;;;420.77;128.30;;;;;;;6.53;100.00;98985.09;341153;29;830;-74
2022/01/09 00:30:44;;;;;;;417.73;128.48;;;;;;;6.53;100.00;98985.09;339936;29;940;-74
2022/01/09 00:30:54;;;;;;;418.70;129.53;;;;;;;6.54;100.00;98989.41;339389;29;1291;-74
2022/01/09 00:31:04;;;;;;;420.40;129.02;;;;;;;6.54;100.00;98986.78;341212;29;1231;-74
2022/01/09 00:31:15;;;;;;;424.77;129.73;;;;;;;6.52;100.00;98983.41;341181;28;1151;-74
2022/01/09 00:31:25;;;;;;;426.05;130.25;;;;;;;6.53;100.00;98985.09;339846;29;1389;-74
2022/01/09 00:31:36;;;;;;;426.67;130.73;;;;;;;6.52;100.00;98983.41;339711;29;1194;-74
2022/01/09 00:31:47;;;;;;;428.75;133.10;;;;;;;6.52;100.00;98989.44;339795;29;1290;-74
2022/01/09 00:31:57;;;;;;;426.15;134.68;;;;;;;6.52;100.00;98986.84;341052;28;1336;-74
2022/01/09 00:32:08;;;;;;;426.30;135.33;;;;;;;6.53;100.00;98987.69;339832;28;1461;-74
2022/01/09 00:32:18;;;;;;;425.42;132.13;;;;;;;6.52;100.00;98989.44;339878;29;832;-74
2022/01/09 00:32:28;;;;;;;428.00;131.03;;;;;;;6.53;100.00;98985.09;341581;28;1277;-74
2022/01/09 00:32:39;;;;;;;427.35;131.27;;;;;;;6.54;100.00;98981.59;342395;28;1181;-74
2022/01/09 00:32:51;;;;;;;424.60;132.30;;;;;;;6.54;100.00;98984.19;341269;28;1205;-74
2022/01/09 00:33:03;;;;;;;427.30;133.43;;;;;;;6.54;100.00;98992.00;339806;29;862;-74
2022/01/09 00:33:14;;;;;;;431.55;133.15;;;;;;;6.54;100.00;98981.59;343834;28;916;-74
2022/01/09 00:33:24;;;;;;;430.60;132.80;;;;;;;6.55;100.00;98988.50;343665;28;1344;-75
2022/01/09 00:33:35;;;;;;;425.63;131.32;;;;;;;6.55;100.00;98985.91;343626;28;1314;-75
2022/01/09 00:33:45;;;;;;;423.17;132.50;;;;;;;6.53;100.00;98985.94;343848;28;811;-75
2022/01/09 00:33:55;;;;;;;420.50;131.63;;;;;;;6.54;100.00;98997.19;343911;28;1019;-75
2022/01/09 00:34:06;;;;;;;424.43;131.33;;;;;;;6.53;100.00;98982.50;345208;28;927;-75
2022/01/09 00:34:16;;;;;;;423.40;132.00;;;;;;;6.54;100.00;98986.78;343922;28;1187;-75
2022/01/09 00:34:26;;;;;;;429.93;135.13;;;;;;;6.53;100.00;98982.50;343831;28;853;-74
2022/01/09 00:34:37;;;;;;;428.15;134.05;;;;;;;6.55;100.00;98988.50;341090;28;1295;-73
2022/01/09 00:34:47;;;;;;;430.50;133.90;;;;;;;6.54;100.00;98979.84;342580;28;869;-73
2022/01/09 00:34:58;;;;;;;427.60;134.10;;;;;;;6.54;100.00;98979.00;341006;28;1239;-73
2022/01/09 00:35:09;;;;;;;430.00;133.38;;;;;;;6.52;100.00;98983.41;339995;29;1510;-73
2022/01/09 00:35:19;;;;;;;428.35;131.48;;;;;;;6.52;100.00;98984.25;341227;28;984;-73
2022/01/09 00:35:30;;;;;;;426.30;130.63;;;;;;;6.53;100.00;98979.91;337279;29;811;-73
2022/01/09 00:35:40;;;;;;;426.80;131.83;;;;;;;6.52;100.00;98979.06;342257;28;1220;-74
2022/01/09 00:35:51;;;;;;;427.98;133.90;;;;;;;6.54;100.00;98994.59;341077;28;1460;-74
2022/01/09 00:36:01;;;;;;;430.33;133.97;;;;;;;6.55;100.00;98988.50;345144;28;1319;-74
2022/01/09 00:36:11;;;;;;;428.58;131.93;;;;;;;6.54;100.00;98981.59;343886;28;929;-73
2022/01/09 00:36:22;;;;;;;426.07;130.43;;;;;;;6.52;100.00;98979.06;341221;29;842;-74
2022/01/09 00:36:32;;;;;;;431.87;133.97;;;;;;;6.53;100.00;98985.09;341066;28;1185;-74
2022/01/09 00:36:42;;;;;;;431.83;134.38;;;;;;;6.54;100.00;98986.78;344971;28;1318;-74
2022/01/09 00:36:53;;;;;;;436.10;135.57;;;;;;;6.51;100.00;98981.69;346569;28;900;-74
2022/01/09 00:37:04;;;;;;;434.48;135.07;;;;;;;6.53;100.00;98985.09;343884;28;805;-74
2022/01/09 00:37:14;;;;;;;434.85;136.95;;;;;;;6.52;100.00;98988.59;343767;28;908;-74
2022/01/09 00:37:24;;;;;;;433.73;137.47;;;;;;;6.53;100.00;98990.28;341134;29;838;-74
2022/01/09 00:37:35;;;;;;;432.02;134.43;;;;;;;6.51;100.00;98982.56;342416;28;1391;-74
2022/01/09 00:37:46;;;;;;;433.37;134.13;;;;;;;6.52;100.00;98986.00;342870;28;850;-74
2022/01/09 00:37:56;;;;;;;433.00;132.65;;;;;;;6.52;100.00;98983.41;342941;28;1071;-74
2022/01/09 00:38:06;;;;;;;432.10;133.30;;;;;;;6.54;100.00;98986.78;339954;29;897;-74
2022/01/09 00:38:17;;;;;;;434.13;133.55;;;;;;;6.51;100.00;98987.75;342304;28;2295;-74
2022/01/09 00:38:27;;;;;;;432.63;135.67;;;;;;;6.50;100.00;98986.06;346296;28;1281;-74
2022/01/09 00:38:37;;;;;;;436.10;138.38;;;;;;;6.50;100.00;98985.25;346443;28;1217;-74
2022/01/09 00:38:48;;;;;;;435.17;138.73;;;;;;;6.49;100.00;98986.13;342457;28;1303;-74
2022/01/09 00:38:58;;;;;;;432.63;137.18;;;;;;;6.47;100.00;98974.94;340953;29;1585;-74
2022/01/09 00:39:09;;;;;;;429.87;135.00;;;;;;;6.49;100.00;98980.94;339819;29;1292;-74
2022/01/09 00:39:19;;;;;;;430.77;135.63;;;;;;;6.47;100.00;98981.00;341222;29;1197;-74
2022/01/09 00:39:29;;;;;;;432.87;136.47;;;;;;;6.47;100.00;98982.75;342476;28;1320;-74
2022/01/09 00:39:40;;;;;;;433.57;135.77;;;;;;;6.48;100.00;98982.69;341176;29;862;-74
2022/01/09 00:39:51;;;;;;;432.30;135.38;;;;;;;6.49;100.00;98978.34;341011;28;1190;-74
2022/01/09 00:40:04;;;;;;;433.23;134.32;;;;;;;6.48;100.00;98976.63;343649;28;1272;-74
2022/01/09 00:40:14;;;;;;;437.40;136.38;;;;;;;6.48;100.00;98987.03;342430;28;902;-74
2022/01/09 00:40:25;;;;;;;436.52;135.43;;;;;;;6.47;100.00;98970.59;343876;28;889;-74
2022/01/09 00:40:35;;;;;;;436.07;137.77;;;;;;;6.46;100.00;98981.03;341866;28;1306;-74
2022/01/09 00:40:46;;;;;;;435.17;135.33;;;;;;;6.48;100.00;98976.63;342748;28;1189;-74
2022/01/09 00:40:56;;;;;;;435.40;134.40;;;;;;;6.49;100.00;98980.94;341081;29;881;-74
2022/01/09 00:41:06;;;;;;;432.30;134.20;;;;;;;6.49;100.00;98978.34;343776;28;821;-74
2022/01/09 00:41:17;;;;;;;431.60;134.80;;;;;;;6.49;100.00;98973.16;343750;28;881;-74
2022/01/09 00:41:27;;;;;;;431.50;134.75;;;;;;;6.50;100.00;98977.44;343591;28;909;-74
2022/01/09 00:41:37;;;;;;;431.33;134.73;;;;;;;6.48;100.00;98979.25;346417;28;1206;-74
2022/01/09 00:41:48;;;;;;;433.50;138.03;;;;;;;6.49;100.00;98973.16;342330;28;1298;-74
2022/01/09 00:41:58;;;;;;;435.63;140.02;;;;;;;6.49;100.00;98973.16;343847;28;1450;-74
2022/01/09 00:42:09;;;;;;;434.20;139.83;;;;;;;6.49;100.00;98976.59;342427;28;1221;-74
2022/01/09 00:42:19;;;;;;;436.17;137.65;;;;;;;6.47;100.00;98969.75;343541;28;1298;-74
2022/01/09 00:42:30;;;;;;;438.60;135.68;;;;;;;6.48;100.00;98969.69;342356;28;1330;-74
2022/01/09 00:42:41;;;;;;;442.40;135.93;;;;;;;6.48;100.00;98971.44;342507;28;896;-74
2022/01/09 00:42:51;;;;;;;446.27;138.23;;;;;;;6.48;100.00;98979.25;342382;28;1407;-74
2022/01/09 00:43:02;;;;;;;445.33;139.32;;;;;;;6.46;100.00;98965.44;343589;28;1396;-74
2022/01/09 00:43:12;;;;;;;445.87;140.97;;;;;;;6.48;100.00;98977.50;342576;28;845;-74
2022/01/09 00:43:22;;;;;;;442.60;139.77;;;;;;;6.48;100.00;98971.44;340472;29;1275;-74
2022/01/09 00:43:33;;;;;;;444.37;141.17;;;;;;;6.50;100.00;98985.25;342466;28;873;-74
2022/01/09 00:43:44;;;;;;;440.30;137.93;;;;;;;6.48;100.00;98971.44;342667;28;1041;-74
2022/01/09 00:43:54;;;;;;;437.00;136.32;;;;;;;6.51;100.00;98979.09;343741;28;1374;-74
2022/01/09 00:44:05;;;;;;;438.97;137.93;;;;;;;6.50;100.00;98974.84;343833;28;790;-74
2022/01/09 00:44:15;;;;;;;441.50;139.02;;;;;;;6.50;100.00;98974.84;339859;29;944;-75
2022/01/09 00:44:26;;;;;;;443.60;141.87;;;;;;;6.50;100.00;98977.44;341068;28;1342;-75
2022/01/09 00:44:36;;;;;;;440.13;139.25;;;;;;;6.51;100.00;98977.34;345276;28;842;-75
2022/01/09 00:44:46;;;;;;;439.53;138.67;;;;;;;6.50;100.00;98973.06;341230;29;865;-75
2022/01/09 00:44:57;;;;;;;437.02;138.23;;;;;;;6.50;100.00;98962.66;342410;28;818;-75
2022/01/09 00:45:07;;;;;;;438.20;139.07;;;;;;;6.51;100.00;98968.72;342308;28;1290;-75
2022/01/09 00:45:18;;;;;;;439.58;141.25;;;;;;;6.52;100.00;98973.00;342364;28;1910;-75
2022/01/09 00:45:28;;;;;;;439.17;139.43;;;;;;;6.52;100.00;98975.59;341126;29;949;-75
2022/01/09 00:45:39;;;;;;;437.02;138.45;;;;;;;6.51;100.00;98964.34;339742;28;1311;-75
2022/01/09 00:45:50;;;;;;;438.30;138.05;;;;;;;6.50;100.00;98969.63;342421;28;932;-75
2022/01/09 00:46:00;;;;;;;439.45;138.15;;;;;;;6.52;100.00;98970.41;342565;28;1304;-75
2022/01/09 00:46:11;;;;;;;443.83;138.60;;;;;;;6.49;100.00;98963.59;341060;28;1348;-74
2022/01/09 00:46:22;;;;;;;443.33;138.47;;;;;;;6.50;100.00;98969.63;342477;28;861;-75
2022/01/09 00:46:35;;;;;;;440.88;136.63;;;;;;;6.50;100.00;98960.06;341039;28;1577;-75
2022/01/09 00:46:45;;;;;;;438.83;135.45;;;;;;;6.51;100.00;98971.31;343763;28;1147;-75
2022/01/09 00:47:00;;;;;;;442.47;134.70;;;;;;;6.50;100.00;98973.06;342244;28;1227;-75
2022/01/09 00:47:10;;;;;;;444.70;136.68;;;;;;;6.50;100.00;98970.47;342514;28;861;-75
2022/01/09 00:47:20;;;;;;;443.13;136.93;;;;;;;6.50;100.00;98969.63;343829;28;834;-74
2022/01/09 00:47:31;;;;;;;440.42;139.23;;;;;;;6.50;100.00;98965.25;343685;28;1326;-74
2022/01/09 00:47:41;;;;;;;441.97;138.00;;;;;;;6.50;100.00;98972.25;339905;29;787;-74
2022/01/09 00:47:52;;;;;;;443.98;138.93;;;;;;;6.50;100.00;98969.63;341052;28;1465;-74
2022/01/09 00:48:02;;;;;;;445.63;136.57;;;;;;;6.50;100.00;98972.25;340997;29;1309;-75
2022/01/09 00:48:13;;;;;;;445.92;139.38;;;;;;;6.48;100.00;98967.09;339783;29;1335;-74
2022/01/09 00:48:23;;;;;;;444.80;139.87;;;;;;;6.49;100.00;98967.94;341000;29;1332;-73
2022/01/09 00:48:34;;;;;;;444.25;141.25;;;;;;;6.49;100.00;98973.16;339909;29;1018;-73
2022/01/09 00:48:44;;;;;;;444.67;139.85;;;;;;;6.50;100.00;98970.47;338730;29;968;-74
2022/01/09 00:48:55;;;;;;;445.33;137.77;;;;;;;6.49;100.00;98963.59;341022;29;865;-74
2022/01/09 00:49:05;;;;;;;443.10;136.82;;;;;;;6.49;100.00;98966.19;339863;29;982;-74
2022/01/09 00:49:15;;;;;;;442.67;140.97;;;;;;;6.49;100.00;98974.00;341209;29;870;-74
2022/01/09 00:49:27;;;;;;;440.92;141.80;;;;;;;6.48;100.00;98972.28;339956;29;941;-74